createdAt,value
2017-03-14T00:00:19.633Z,0
2017-03-14T00:01:00.510Z,0
2017-03-14T00:01:41.379Z,0
2017-03-14T00:02:22.256Z,0
2017-03-14T00:03:03.132Z,0
2017-03-14T00:03:44.008Z,0
2017-03-14T00:04:24.887Z,0
2017-03-14T00:05:05.767Z,0
2017-03-14T00:05:46.648Z,0
2017-03-14T00:06:27.527Z,0
2017-03-14T00:07:08.409Z,0
2017-03-14T00:07:49.292Z,0
2017-03-14T00:08:30.195Z,0
2017-03-14T00:09:11.047Z,0
2017-03-14T00:09:51.927Z,0
2017-03-14T00:10:32.796Z,0
2017-03-14T00:11:13.682Z,0
2017-03-14T00:11:54.558Z,0
2017-03-14T00:12:35.434Z,0
2017-03-14T00:13:16.304Z,0
2017-03-14T00:13:57.179Z,0
2017-03-14T00:14:38.057Z,0
2017-03-14T00:15:18.930Z,0
2017-03-14T00:15:59.810Z,0
2017-03-14T00:16:40.689Z,0
2017-03-14T00:17:21.569Z,0
2017-03-14T00:18:02.446Z,0
2017-03-14T00:18:43.342Z,0
2017-03-14T00:19:24.223Z,0
2017-03-14T00:20:05.098Z,0
2017-03-14T00:20:45.980Z,0
2017-03-14T00:21:26.860Z,0
2017-03-14T00:22:07.740Z,0
2017-03-14T00:22:48.621Z,0
2017-03-14T00:23:30.043Z,0
2017-03-14T00:24:11.001Z,0
2017-03-14T00:24:51.876Z,0
2017-03-14T00:25:32.759Z,0
2017-03-14T00:26:13.637Z,0
2017-03-14T00:26:54.520Z,0
2017-03-14T00:27:35.407Z,0
2017-03-14T00:28:16.287Z,0
2017-03-14T00:28:57.158Z,0
2017-03-14T00:29:38.038Z,0
2017-03-14T00:30:18.921Z,0
2017-03-14T00:30:59.798Z,0
2017-03-14T00:31:40.683Z,0
2017-03-14T00:32:21.559Z,0
2017-03-14T00:33:02.436Z,0
2017-03-14T00:33:43.318Z,0
2017-03-14T00:34:24.190Z,0
2017-03-14T00:35:05.067Z,0
2017-03-14T00:35:45.949Z,0
2017-03-14T00:36:26.830Z,0
2017-03-14T00:37:07.709Z,0
2017-03-14T00:37:48.580Z,0
2017-03-14T00:38:29.456Z,0
2017-03-14T00:39:10.340Z,0
2017-03-14T00:39:51.225Z,0
2017-03-14T00:40:32.107Z,0
2017-03-14T00:41:12.984Z,0
2017-03-14T00:41:53.850Z,0
2017-03-14T00:42:34.768Z,0
2017-03-14T00:43:15.645Z,0
2017-03-14T00:43:56.525Z,0
2017-03-14T00:44:37.407Z,0
2017-03-14T00:45:18.290Z,0
2017-03-14T00:45:59.170Z,0
2017-03-14T00:46:40.049Z,0
2017-03-14T00:47:20.924Z,0
2017-03-14T00:48:02.037Z,0
2017-03-14T00:48:43.044Z,0
2017-03-14T00:49:23.923Z,0
2017-03-14T00:50:04.804Z,0
2017-03-14T00:50:45.698Z,0
2017-03-14T00:51:26.558Z,0
2017-03-14T00:52:07.431Z,0
2017-03-14T00:52:48.313Z,0
2017-03-14T00:53:29.198Z,0
2017-03-14T00:54:10.076Z,0
2017-03-14T00:54:50.958Z,0
2017-03-14T00:55:31.834Z,0
2017-03-14T00:56:12.708Z,0
2017-03-14T00:56:53.588Z,0
2017-03-14T00:57:34.471Z,0
2017-03-14T00:58:15.348Z,0
2017-03-14T00:58:56.238Z,0
2017-03-14T00:59:37.123Z,0
2017-03-14T01:00:18.001Z,0
2017-03-14T01:00:58.883Z,0
2017-03-14T01:01:39.765Z,0
2017-03-14T01:02:20.642Z,0
2017-03-14T01:03:01.513Z,0
2017-03-14T01:03:42.395Z,0
2017-03-14T01:04:23.274Z,0
2017-03-14T01:05:04.154Z,0
2017-03-14T01:05:45.030Z,0
2017-03-14T01:06:25.914Z,0
2017-03-14T01:07:06.796Z,0
2017-03-14T01:07:47.678Z,0
2017-03-14T01:08:28.579Z,0
2017-03-14T01:09:09.438Z,0
2017-03-14T01:09:50.320Z,0
2017-03-14T01:10:31.203Z,0
2017-03-14T01:11:12.075Z,0
2017-03-14T01:11:52.957Z,0
2017-03-14T01:12:33.829Z,0
2017-03-14T01:13:14.708Z,0
2017-03-14T01:13:55.584Z,0
2017-03-14T01:14:36.460Z,0
2017-03-14T01:15:17.346Z,0
2017-03-14T01:15:58.226Z,0
2017-03-14T01:16:39.107Z,0
2017-03-14T01:17:19.997Z,0
2017-03-14T01:18:00.882Z,0
2017-03-14T01:18:41.742Z,0
2017-03-14T01:19:22.620Z,0
2017-03-14T01:20:03.499Z,0
2017-03-14T01:20:44.372Z,0
2017-03-14T01:21:25.252Z,0
2017-03-14T01:22:06.128Z,0
2017-03-14T01:22:47.007Z,0
2017-03-14T01:23:27.889Z,0
2017-03-14T01:24:08.773Z,0
2017-03-14T01:24:49.652Z,0
2017-03-14T01:25:30.547Z,0
2017-03-14T01:26:11.427Z,0
2017-03-14T01:26:52.307Z,0
2017-03-14T01:27:33.184Z,0
2017-03-14T01:28:14.065Z,0
2017-03-14T01:28:54.950Z,0
2017-03-14T01:29:35.835Z,0
2017-03-14T01:30:16.693Z,0
2017-03-14T01:30:57.592Z,0
2017-03-14T01:31:38.448Z,0
2017-03-14T01:32:19.334Z,0
2017-03-14T01:33:00.202Z,0
2017-03-14T01:33:41.081Z,0
2017-03-14T01:34:21.959Z,0
2017-03-14T01:35:02.839Z,0
2017-03-14T01:35:43.726Z,0
2017-03-14T01:36:24.608Z,0
2017-03-14T01:37:05.498Z,0
2017-03-14T01:37:46.383Z,0
2017-03-14T01:39:47.319Z,0
2017-03-14T01:40:28.206Z,0
2017-03-14T01:41:09.090Z,0
2017-03-14T01:41:49.955Z,0
2017-03-14T01:42:30.834Z,0
2017-03-14T01:43:11.713Z,0
2017-03-14T01:43:52.594Z,0
2017-03-14T01:44:33.476Z,0
2017-03-14T01:45:14.350Z,0
2017-03-14T01:45:55.228Z,0
2017-03-14T01:46:36.111Z,0
2017-03-14T01:47:16.987Z,0
2017-03-14T01:47:57.864Z,0
2017-03-14T01:48:38.748Z,0
2017-03-14T01:49:19.635Z,0
2017-03-14T01:50:00.514Z,0
2017-03-14T01:50:41.393Z,0
2017-03-14T01:51:22.269Z,0
2017-03-14T01:52:03.150Z,0
2017-03-14T01:52:44.030Z,0
2017-03-14T01:53:24.912Z,0
2017-03-14T01:54:05.792Z,0
2017-03-14T01:54:46.673Z,0
2017-03-14T01:55:27.555Z,0
2017-03-14T01:56:08.439Z,0
2017-03-14T01:56:49.326Z,0
2017-03-14T01:57:30.353Z,0
2017-03-14T01:58:11.242Z,0
2017-03-14T01:58:52.114Z,0
2017-03-14T01:59:32.990Z,0
2017-03-14T02:00:13.868Z,0
2017-03-14T02:00:54.747Z,0
2017-03-14T02:01:35.790Z,0
2017-03-14T02:02:16.676Z,0
2017-03-14T02:02:57.556Z,0
2017-03-14T02:03:38.436Z,0
2017-03-14T02:04:19.319Z,0
2017-03-14T02:05:00.200Z,0
2017-03-14T02:05:41.081Z,0
2017-03-14T02:06:21.952Z,0
2017-03-14T02:07:02.827Z,0
2017-03-14T02:07:43.709Z,0
2017-03-14T02:08:24.586Z,0
2017-03-14T02:09:05.462Z,0
2017-03-14T02:09:46.351Z,0
2017-03-14T02:10:27.233Z,0
2017-03-14T02:11:08.099Z,0
2017-03-14T02:11:48.979Z,0
2017-03-14T02:12:29.860Z,0
2017-03-14T02:13:10.738Z,0
2017-03-14T02:13:51.615Z,0
2017-03-14T02:14:32.493Z,0
2017-03-14T02:15:13.399Z,0
2017-03-14T02:15:54.284Z,0
2017-03-14T02:16:35.154Z,0
2017-03-14T02:17:16.031Z,0
2017-03-14T02:17:56.912Z,0
2017-03-14T02:18:37.793Z,0
2017-03-14T02:19:18.685Z,0
2017-03-14T02:19:59.563Z,0
2017-03-14T02:20:40.448Z,0
2017-03-14T02:21:21.325Z,0
2017-03-14T02:22:02.200Z,0
2017-03-14T02:22:43.085Z,0
2017-03-14T02:23:23.963Z,0
2017-03-14T02:24:04.842Z,0
2017-03-14T02:24:45.723Z,0
2017-03-14T02:25:26.602Z,0
2017-03-14T02:26:07.490Z,0
2017-03-14T02:26:48.372Z,0
2017-03-14T02:27:29.251Z,0
2017-03-14T02:28:10.129Z,0
2017-03-14T02:28:51.007Z,0
2017-03-14T02:29:31.894Z,0
2017-03-14T02:30:12.774Z,0
2017-03-14T02:30:53.649Z,0
2017-03-14T02:31:34.530Z,0
2017-03-14T02:32:15.404Z,0
2017-03-14T02:32:56.287Z,0
2017-03-14T02:33:37.177Z,0
2017-03-14T02:34:18.059Z,0
2017-03-14T02:34:58.943Z,0
2017-03-14T02:35:39.826Z,0
2017-03-14T02:36:20.708Z,0
2017-03-14T02:37:01.575Z,0
2017-03-14T02:37:42.453Z,0
2017-03-14T02:38:23.335Z,0
2017-03-14T02:39:04.220Z,0
2017-03-14T02:39:45.102Z,0
2017-03-14T02:40:25.991Z,0
2017-03-14T02:41:06.874Z,0
2017-03-14T02:41:47.757Z,0
2017-03-14T02:42:28.634Z,0
2017-03-14T02:43:09.517Z,0
2017-03-14T02:43:50.403Z,0
2017-03-14T02:44:31.288Z,0
2017-03-14T02:45:12.167Z,0
2017-03-14T02:45:53.049Z,0
2017-03-14T02:46:33.941Z,0
2017-03-14T02:47:14.813Z,0
2017-03-14T02:47:55.692Z,0
2017-03-14T02:48:36.568Z,0
2017-03-14T02:49:17.449Z,0
2017-03-14T02:49:58.328Z,0
2017-03-14T02:50:39.209Z,0
2017-03-14T02:51:20.087Z,0
2017-03-14T02:52:00.973Z,0
2017-03-14T02:52:41.859Z,0
2017-03-14T02:53:22.747Z,0
2017-03-14T02:54:03.628Z,0
2017-03-14T02:54:44.508Z,0
2017-03-14T02:55:25.389Z,0
2017-03-14T02:56:06.271Z,0
2017-03-14T02:56:47.157Z,0
2017-03-14T02:57:28.039Z,0
2017-03-14T02:58:08.923Z,0
2017-03-14T02:58:49.801Z,0
2017-03-14T02:59:30.684Z,0
2017-03-14T03:00:11.560Z,0
2017-03-14T03:00:52.441Z,0
2017-03-14T03:01:33.337Z,0
2017-03-14T03:02:14.214Z,0
2017-03-14T03:02:55.090Z,0
2017-03-14T03:03:35.975Z,0
2017-03-14T03:04:16.859Z,0
2017-03-14T03:04:57.736Z,0
2017-03-14T03:05:38.621Z,0
2017-03-14T03:06:19.500Z,0
2017-03-14T03:07:00.382Z,0
2017-03-14T03:07:41.269Z,0
2017-03-14T03:08:22.142Z,0
2017-03-14T03:09:03.024Z,0
2017-03-14T03:09:43.913Z,0
2017-03-14T03:10:24.791Z,0
2017-03-14T03:11:05.677Z,0
2017-03-14T03:11:46.555Z,0
2017-03-14T03:12:27.433Z,0
2017-03-14T03:13:08.314Z,0
2017-03-14T03:13:49.195Z,0
2017-03-14T03:14:30.070Z,0
2017-03-14T03:15:10.947Z,0
2017-03-14T03:15:51.821Z,0
2017-03-14T03:16:32.701Z,0
2017-03-14T03:17:13.583Z,0
2017-03-14T03:17:54.459Z,0
2017-03-14T03:18:35.340Z,0
2017-03-14T03:19:16.253Z,0
2017-03-14T03:19:57.135Z,0
2017-03-14T03:20:38.013Z,0
2017-03-14T03:21:18.892Z,0
2017-03-14T03:21:59.776Z,0
2017-03-14T03:22:40.649Z,0
2017-03-14T03:23:21.525Z,0
2017-03-14T03:24:02.391Z,0
2017-03-14T03:24:43.272Z,0
2017-03-14T03:25:24.152Z,0
2017-03-14T03:26:05.036Z,0
2017-03-14T03:26:45.914Z,0
2017-03-14T03:27:26.781Z,0
2017-03-14T03:28:07.655Z,0
2017-03-14T03:28:48.534Z,0
2017-03-14T03:29:29.415Z,0
2017-03-14T03:30:10.287Z,0
2017-03-14T03:30:51.167Z,0
2017-03-14T03:31:32.045Z,0
2017-03-14T03:32:12.924Z,0
2017-03-14T03:32:53.806Z,0
2017-03-14T03:33:34.683Z,0
2017-03-14T03:34:15.567Z,0
2017-03-14T03:34:56.446Z,0
2017-03-14T03:35:37.327Z,0
2017-03-14T03:36:18.211Z,0
2017-03-14T03:36:59.088Z,0
2017-03-14T03:37:39.967Z,0
2017-03-14T03:39:59.754Z,0
2017-03-14T03:40:40.643Z,0
2017-03-14T03:41:21.523Z,0
2017-03-14T03:42:02.406Z,0
2017-03-14T03:42:43.284Z,0
2017-03-14T03:43:24.161Z,0
2017-03-14T03:44:05.043Z,0
2017-03-14T03:44:45.938Z,0
2017-03-14T03:45:26.822Z,0
2017-03-14T03:46:07.701Z,0
2017-03-14T03:46:48.585Z,0
2017-03-14T03:47:29.466Z,0
2017-03-14T03:48:10.343Z,0
2017-03-14T03:48:51.211Z,0
2017-03-14T03:49:32.098Z,0
2017-03-14T03:50:12.976Z,0
2017-03-14T03:50:53.851Z,0
2017-03-14T03:51:34.735Z,0
2017-03-14T03:52:15.608Z,0
2017-03-14T03:52:56.489Z,0
2017-03-14T03:53:37.367Z,0
2017-03-14T03:54:18.247Z,0
2017-03-14T03:54:59.126Z,0
2017-03-14T03:55:40.006Z,0
2017-03-14T03:56:20.884Z,0
2017-03-14T03:57:01.769Z,0
2017-03-14T03:57:42.646Z,0
2017-03-14T03:58:23.537Z,0
2017-03-14T03:59:04.422Z,0
2017-03-14T03:59:45.295Z,0
2017-03-14T04:00:26.174Z,0
2017-03-14T04:01:07.051Z,0
2017-03-14T04:01:47.931Z,0
2017-03-14T04:02:28.809Z,0
2017-03-14T04:03:09.685Z,0
2017-03-14T04:03:50.572Z,0
2017-03-14T04:04:31.453Z,0
2017-03-14T04:05:12.334Z,0
2017-03-14T04:05:53.219Z,0
2017-03-14T04:06:34.102Z,0
2017-03-14T04:07:14.982Z,0
2017-03-14T04:07:55.863Z,0
2017-03-14T04:08:36.747Z,0
2017-03-14T04:09:17.629Z,0
2017-03-14T04:09:58.520Z,0
2017-03-14T04:10:39.396Z,0
2017-03-14T04:11:20.279Z,0
2017-03-14T04:12:01.151Z,0
2017-03-14T04:12:42.025Z,0
2017-03-14T04:13:22.906Z,0
2017-03-14T04:14:03.781Z,0
2017-03-14T04:14:44.659Z,0
2017-03-14T04:15:25.539Z,0
2017-03-14T04:16:06.416Z,0
2017-03-14T04:16:47.297Z,0
2017-03-14T04:17:28.177Z,0
2017-03-14T04:18:09.064Z,0
2017-03-14T04:18:49.942Z,0
2017-03-14T04:19:30.820Z,0
2017-03-14T04:20:11.702Z,0
2017-03-14T04:20:52.579Z,0
2017-03-14T04:21:33.460Z,0
2017-03-14T04:22:14.339Z,0
2017-03-14T04:22:55.212Z,0
2017-03-14T04:23:36.089Z,0
2017-03-14T04:24:16.971Z,0
2017-03-14T04:24:57.853Z,0
2017-03-14T04:25:38.736Z,0
2017-03-14T04:26:19.615Z,0
2017-03-14T04:27:00.501Z,0
2017-03-14T04:27:41.380Z,0
2017-03-14T04:28:22.259Z,0
2017-03-14T04:29:03.128Z,0
2017-03-14T04:29:44.003Z,0
2017-03-14T04:30:24.892Z,0
2017-03-14T04:31:05.788Z,0
2017-03-14T04:31:46.663Z,0
2017-03-14T04:32:27.542Z,0
2017-03-14T04:33:08.421Z,0
2017-03-14T04:33:49.308Z,0
2017-03-14T04:34:30.190Z,0
2017-03-14T04:35:11.072Z,0
2017-03-14T04:35:51.954Z,0
2017-03-14T04:36:32.836Z,0
2017-03-14T04:37:13.717Z,0
2017-03-14T04:37:54.597Z,0
2017-03-14T04:38:35.477Z,0
2017-03-14T04:39:16.363Z,0
2017-03-14T04:39:57.238Z,0
2017-03-14T04:40:38.125Z,0
2017-03-14T04:41:18.998Z,0
2017-03-14T04:41:59.880Z,0
2017-03-14T04:42:40.765Z,0
2017-03-14T04:43:21.647Z,0
2017-03-14T04:44:02.527Z,0
2017-03-14T04:44:43.412Z,0
2017-03-14T04:45:24.288Z,0
2017-03-14T04:46:05.168Z,0
2017-03-14T04:46:46.051Z,0
2017-03-14T04:47:26.932Z,0
2017-03-14T04:48:07.807Z,0
2017-03-14T04:48:48.687Z,0
2017-03-14T04:49:29.567Z,0
2017-03-14T04:50:10.459Z,0
2017-03-14T04:50:51.340Z,0
2017-03-14T04:51:32.224Z,0
2017-03-14T04:52:13.101Z,0
2017-03-14T04:52:53.989Z,0
2017-03-14T04:53:34.873Z,0
2017-03-14T04:54:15.752Z,0
2017-03-14T04:54:56.632Z,0
2017-03-14T04:55:37.510Z,0
2017-03-14T04:56:18.390Z,0
2017-03-14T04:56:59.267Z,0
2017-03-14T04:57:40.149Z,0
2017-03-14T04:58:21.030Z,0
2017-03-14T04:59:01.916Z,0
2017-03-14T04:59:42.794Z,0
2017-03-14T05:00:23.674Z,0
2017-03-14T05:01:04.555Z,0
2017-03-14T05:01:45.435Z,0
2017-03-14T05:02:26.315Z,0
2017-03-14T05:03:07.195Z,0
2017-03-14T05:03:48.071Z,0
2017-03-14T05:04:28.946Z,0
2017-03-14T05:05:09.826Z,0
2017-03-14T05:05:50.717Z,0
2017-03-14T05:06:31.595Z,0
2017-03-14T05:07:12.474Z,0
2017-03-14T05:07:53.349Z,0
2017-03-14T05:08:34.227Z,0
2017-03-14T05:09:15.109Z,0
2017-03-14T05:09:55.985Z,0
2017-03-14T05:10:36.868Z,0
2017-03-14T05:11:17.738Z,0
2017-03-14T05:11:58.621Z,0
2017-03-14T05:12:39.500Z,0
2017-03-14T05:13:20.379Z,0
2017-03-14T05:14:01.261Z,0
2017-03-14T05:14:42.142Z,0
2017-03-14T05:15:23.024Z,0
2017-03-14T05:16:03.900Z,0
2017-03-14T05:16:44.779Z,0
2017-03-14T05:17:25.657Z,0
2017-03-14T05:18:06.540Z,0
2017-03-14T05:18:47.423Z,0
2017-03-14T05:19:28.319Z,0
2017-03-14T05:20:09.194Z,0
2017-03-14T05:20:50.073Z,0
2017-03-14T05:21:30.942Z,0
2017-03-14T05:22:11.823Z,5
2017-03-14T05:22:52.704Z,5
2017-03-14T05:23:33.584Z,5
2017-03-14T05:24:14.464Z,5
2017-03-14T05:24:55.350Z,5
2017-03-14T05:25:36.222Z,5
2017-03-14T05:26:17.098Z,5
2017-03-14T05:26:57.974Z,5
2017-03-14T05:27:38.841Z,5
2017-03-14T05:28:19.728Z,5
2017-03-14T05:29:00.605Z,5
2017-03-14T05:29:41.485Z,5
2017-03-14T05:30:22.389Z,5
2017-03-14T05:31:03.271Z,5
2017-03-14T05:31:44.151Z,10
2017-03-14T05:32:25.040Z,10
2017-03-14T05:33:05.914Z,10
2017-03-14T05:33:46.792Z,10
2017-03-14T05:34:27.670Z,10
2017-03-14T05:35:08.551Z,10
2017-03-14T05:35:49.423Z,10
2017-03-14T05:36:30.328Z,10
2017-03-14T05:37:11.178Z,15
2017-03-14T05:37:52.052Z,15
2017-03-14T05:38:32.928Z,15
2017-03-14T05:39:13.803Z,15
2017-03-14T05:39:54.683Z,15
2017-03-14T05:40:35.562Z,15
2017-03-14T05:41:16.439Z,15
2017-03-14T05:41:57.322Z,15
2017-03-14T05:42:38.204Z,20
2017-03-14T05:43:19.082Z,20
2017-03-14T05:43:59.968Z,20
2017-03-14T05:44:40.857Z,20
2017-03-14T05:45:21.739Z,20
2017-03-14T05:46:02.611Z,20
2017-03-14T05:46:43.495Z,25
2017-03-14T05:47:24.372Z,25
2017-03-14T05:48:05.255Z,25
2017-03-14T05:48:46.136Z,25
2017-03-14T05:49:27.023Z,25
2017-03-14T05:50:07.906Z,25
2017-03-14T05:50:48.783Z,30
2017-03-14T05:51:29.662Z,30
2017-03-14T05:52:10.535Z,30
2017-03-14T05:52:51.415Z,30
2017-03-14T05:53:32.294Z,30
2017-03-14T05:54:13.172Z,30
2017-03-14T05:54:54.052Z,35
2017-03-14T05:55:34.929Z,35
2017-03-14T05:56:15.801Z,35
2017-03-14T05:56:56.685Z,35
2017-03-14T05:57:37.568Z,40
2017-03-14T05:58:18.436Z,40
2017-03-14T05:58:59.316Z,40
2017-03-14T05:59:40.194Z,45
2017-03-14T06:00:21.078Z,45
2017-03-14T06:01:01.960Z,45
2017-03-14T06:01:42.838Z,50
2017-03-14T06:02:23.724Z,50
2017-03-14T06:03:04.614Z,50
2017-03-14T06:03:45.492Z,50
2017-03-14T06:04:26.379Z,55
2017-03-14T06:05:07.260Z,55
2017-03-14T06:05:48.158Z,55
2017-03-14T06:06:29.046Z,55
2017-03-14T06:07:09.926Z,55
2017-03-14T06:07:50.805Z,55
2017-03-14T06:08:31.686Z,60
2017-03-14T06:09:12.564Z,60
2017-03-14T06:09:53.441Z,60
2017-03-14T06:10:34.323Z,60
2017-03-14T06:11:15.208Z,55
2017-03-14T06:11:56.087Z,55
2017-03-14T06:12:36.968Z,55
2017-03-14T06:13:17.842Z,50
2017-03-14T06:13:58.722Z,50
2017-03-14T06:14:39.600Z,50
2017-03-14T06:15:20.484Z,50
2017-03-14T06:16:01.362Z,50
2017-03-14T06:16:42.238Z,50
2017-03-14T06:17:23.116Z,50
2017-03-14T06:18:03.992Z,50
2017-03-14T06:18:44.871Z,55
2017-03-14T06:19:25.763Z,55
2017-03-14T06:20:06.644Z,55
2017-03-14T06:20:47.522Z,60
2017-03-14T06:21:28.468Z,60
2017-03-14T06:22:09.352Z,65
2017-03-14T06:22:50.227Z,65
2017-03-14T06:23:31.108Z,70
2017-03-14T06:24:11.991Z,70
2017-03-14T06:24:52.873Z,70
2017-03-14T06:25:33.770Z,70
2017-03-14T06:26:14.636Z,65
2017-03-14T06:26:55.504Z,65
2017-03-14T06:27:36.385Z,65
2017-03-14T06:28:17.289Z,65
2017-03-14T06:28:58.148Z,70
2017-03-14T06:29:39.027Z,75
2017-03-14T06:30:19.918Z,80
2017-03-14T06:31:00.809Z,80
2017-03-14T06:31:41.675Z,80
2017-03-14T06:32:22.548Z,85
2017-03-14T06:33:03.429Z,85
2017-03-14T06:33:44.307Z,80
2017-03-14T06:34:25.192Z,80
2017-03-14T06:35:06.066Z,80
2017-03-14T06:35:46.940Z,75
2017-03-14T06:36:27.831Z,75
2017-03-14T06:37:08.723Z,75
2017-03-14T06:37:49.602Z,80
2017-03-14T06:38:30.484Z,80
2017-03-14T06:39:11.354Z,80
2017-03-14T06:39:52.225Z,80
2017-03-14T06:40:33.113Z,80
2017-03-14T06:41:13.998Z,75
2017-03-14T06:41:54.874Z,75
2017-03-14T06:42:35.777Z,75
2017-03-14T06:43:16.634Z,75
2017-03-14T06:43:57.515Z,80
2017-03-14T06:44:38.395Z,85
2017-03-14T06:45:19.271Z,85
2017-03-14T06:46:00.154Z,85
2017-03-14T06:46:41.037Z,90
2017-03-14T06:47:21.924Z,90
2017-03-14T06:48:02.803Z,90
2017-03-14T06:48:43.686Z,90
2017-03-14T06:49:24.568Z,85
2017-03-14T06:50:05.450Z,85
2017-03-14T06:50:46.328Z,90
2017-03-14T06:51:27.201Z,95
2017-03-14T06:52:08.080Z,100
2017-03-14T06:52:48.964Z,105
2017-03-14T06:53:29.853Z,105
2017-03-14T06:54:10.736Z,105
2017-03-14T06:54:51.618Z,100
2017-03-14T06:55:32.500Z,100
2017-03-14T06:56:13.384Z,95
2017-03-14T06:56:54.265Z,95
2017-03-14T06:57:35.145Z,95
2017-03-14T06:58:16.031Z,95
2017-03-14T06:58:56.914Z,100
2017-03-14T06:59:37.797Z,105
2017-03-14T07:00:18.679Z,110
2017-03-14T07:00:59.560Z,110
2017-03-14T07:01:40.452Z,110
2017-03-14T07:02:21.335Z,110
2017-03-14T07:03:02.210Z,105
2017-03-14T07:03:43.095Z,100
2017-03-14T07:04:23.986Z,100
2017-03-14T07:05:04.870Z,95
2017-03-14T07:05:45.752Z,100
2017-03-14T07:06:26.630Z,100
2017-03-14T07:07:07.518Z,105
2017-03-14T07:07:48.400Z,105
2017-03-14T07:08:29.280Z,105
2017-03-14T07:09:10.166Z,100
2017-03-14T07:09:51.048Z,100
2017-03-14T07:10:31.930Z,95
2017-03-14T07:11:12.805Z,95
2017-03-14T07:11:53.682Z,95
2017-03-14T07:12:34.557Z,95
2017-03-14T07:13:15.477Z,95
2017-03-14T07:13:56.316Z,95
2017-03-14T07:14:37.196Z,90
2017-03-14T07:15:18.085Z,90
2017-03-14T07:15:58.970Z,95
2017-03-14T07:16:39.849Z,100
2017-03-14T07:17:20.729Z,110
2017-03-14T07:18:01.606Z,110
2017-03-14T07:18:42.522Z,125
2017-03-14T07:19:23.393Z,130
2017-03-14T07:20:04.268Z,140
2017-03-14T07:20:45.146Z,155
2017-03-14T07:21:26.034Z,170
2017-03-14T07:22:06.918Z,180
2017-03-14T07:22:47.801Z,175
2017-03-14T07:23:28.680Z,180
2017-03-14T07:24:09.563Z,180
2017-03-14T07:24:50.454Z,185
2017-03-14T07:25:31.327Z,190
2017-03-14T07:26:12.207Z,185
2017-03-14T07:26:53.094Z,185
2017-03-14T07:27:33.976Z,180
2017-03-14T07:28:14.848Z,185
2017-03-14T07:28:55.725Z,185
2017-03-14T07:29:36.596Z,180
2017-03-14T07:30:17.471Z,165
2017-03-14T07:30:58.341Z,165
2017-03-14T07:31:39.217Z,160
2017-03-14T07:32:20.099Z,165
2017-03-14T07:33:00.978Z,175
2017-03-14T07:33:41.865Z,175
2017-03-14T07:34:22.742Z,180
2017-03-14T07:35:03.606Z,180
2017-03-14T07:35:44.486Z,180
2017-03-14T07:36:25.381Z,190
2017-03-14T07:37:06.273Z,195
2017-03-14T07:37:47.142Z,190
2017-03-14T07:38:28.012Z,185
2017-03-14T07:39:08.881Z,185
2017-03-14T07:39:49.757Z,190
2017-03-14T07:40:30.642Z,200
2017-03-14T07:41:11.524Z,215
2017-03-14T07:41:52.403Z,215
2017-03-14T07:42:33.271Z,200
2017-03-14T07:43:14.146Z,190
2017-03-14T07:43:55.033Z,190
2017-03-14T07:44:35.906Z,185
2017-03-14T07:45:16.777Z,180
2017-03-14T07:45:57.651Z,180
2017-03-14T07:46:38.519Z,180
2017-03-14T07:47:19.403Z,180
2017-03-14T07:48:00.286Z,180
2017-03-14T07:48:41.164Z,175
2017-03-14T07:49:22.040Z,175
2017-03-14T07:50:02.918Z,180
2017-03-14T07:50:43.796Z,185
2017-03-14T07:51:24.678Z,185
2017-03-14T07:52:05.555Z,180
2017-03-14T07:52:46.434Z,170
2017-03-14T07:53:27.311Z,165
2017-03-14T07:54:08.187Z,165
2017-03-14T07:54:49.062Z,160
2017-03-14T07:55:29.935Z,160
2017-03-14T07:56:10.810Z,160
2017-03-14T07:56:51.683Z,155
2017-03-14T07:57:32.548Z,150
2017-03-14T07:58:13.428Z,145
2017-03-14T07:58:54.305Z,145
2017-03-14T07:59:35.189Z,150
2017-03-14T08:00:16.070Z,155
2017-03-14T08:00:56.943Z,155
2017-03-14T08:01:37.819Z,165
2017-03-14T08:02:18.706Z,165
2017-03-14T08:02:59.591Z,170
2017-03-14T08:03:40.493Z,175
2017-03-14T08:04:21.368Z,175
2017-03-14T08:05:02.246Z,190
2017-03-14T08:05:43.127Z,205
2017-03-14T08:06:24.001Z,210
2017-03-14T08:07:04.883Z,215
2017-03-14T08:07:45.792Z,210
2017-03-14T08:08:26.649Z,230
2017-03-14T08:09:07.530Z,265
2017-03-14T08:09:48.401Z,265
2017-03-14T08:10:29.282Z,235
2017-03-14T08:11:10.167Z,190
2017-03-14T08:11:51.051Z,165
2017-03-14T08:12:31.923Z,145
2017-03-14T08:13:12.807Z,125
2017-03-14T08:13:53.693Z,120
2017-03-14T08:14:34.582Z,125
2017-03-14T08:15:15.459Z,115
2017-03-14T08:15:56.341Z,105
2017-03-14T08:16:37.243Z,105
2017-03-14T08:17:18.128Z,100
2017-03-14T08:17:59.011Z,95
2017-03-14T08:18:39.886Z,100
2017-03-14T08:19:20.767Z,110
2017-03-14T08:20:01.644Z,125
2017-03-14T08:20:42.522Z,135
2017-03-14T08:21:23.408Z,145
2017-03-14T08:22:04.284Z,165
2017-03-14T08:22:45.169Z,180
2017-03-14T08:23:26.044Z,185
2017-03-14T08:24:06.917Z,185
2017-03-14T08:24:47.784Z,195
2017-03-14T08:25:28.662Z,220
2017-03-14T08:26:09.543Z,230
2017-03-14T08:26:50.426Z,240
2017-03-14T08:27:31.307Z,260
2017-03-14T08:28:12.190Z,270
2017-03-14T08:28:53.077Z,260
2017-03-14T08:29:33.956Z,270
2017-03-14T08:30:14.836Z,230
2017-03-14T08:30:55.722Z,225
2017-03-14T08:31:36.605Z,230
2017-03-14T08:32:17.492Z,255
2017-03-14T08:32:58.373Z,315
2017-03-14T08:33:39.261Z,335
2017-03-14T08:34:20.141Z,315
2017-03-14T08:35:01.022Z,320
2017-03-14T08:35:41.905Z,335
2017-03-14T08:36:22.783Z,500
2017-03-14T08:37:03.662Z,415
2017-03-14T08:37:44.544Z,325
2017-03-14T08:38:25.423Z,285
2017-03-14T08:39:06.308Z,235
2017-03-14T08:39:47.188Z,255
2017-03-14T08:40:28.086Z,260
2017-03-14T08:42:21.720Z,340
2017-03-14T08:43:02.612Z,315
2017-03-14T08:43:43.478Z,345
2017-03-14T08:44:24.351Z,360
2017-03-14T08:45:05.264Z,390
2017-03-14T08:45:53.138Z,385
2017-03-14T08:46:34.018Z,420
2017-03-14T08:47:17.499Z,430
2017-03-14T08:47:58.378Z,425
2017-03-14T08:48:39.254Z,435
2017-03-14T08:49:20.124Z,450
2017-03-14T08:50:01.002Z,465
2017-03-14T08:50:41.884Z,460
2017-03-14T08:51:22.764Z,510
2017-03-14T08:52:03.641Z,500
2017-03-14T08:52:44.527Z,560
2017-03-14T08:53:25.408Z,700
2017-03-14T08:54:06.288Z,690
2017-03-14T08:54:47.168Z,905
2017-03-14T08:55:28.039Z,745
2017-03-14T08:56:08.924Z,765
2017-03-14T08:56:49.807Z,650
2017-03-14T08:57:30.691Z,585
2017-03-14T08:58:11.573Z,570
2017-03-14T08:58:52.452Z,610
2017-03-14T08:59:33.338Z,485
2017-03-14T09:00:14.214Z,445
2017-03-14T09:00:55.101Z,450
2017-03-14T09:01:35.971Z,435
2017-03-14T09:02:16.876Z,400
2017-03-14T09:02:57.756Z,400
2017-03-14T09:03:38.644Z,415
2017-03-14T09:04:19.519Z,425
2017-03-14T09:05:00.400Z,430
2017-03-14T09:05:41.287Z,435
2017-03-14T09:06:22.152Z,455
2017-03-14T09:07:03.032Z,480
2017-03-14T09:07:43.915Z,500
2017-03-14T09:08:24.815Z,495
2017-03-14T09:09:05.702Z,475
2017-03-14T09:09:46.583Z,485
2017-03-14T09:12:26.023Z,430
2017-03-14T09:13:06.926Z,415
2017-03-14T09:13:47.792Z,420
2017-03-14T09:14:28.684Z,425
2017-03-14T09:15:09.552Z,425
2017-03-14T09:15:50.438Z,430
2017-03-14T09:16:31.322Z,440
2017-03-14T09:17:12.204Z,445
2017-03-14T09:17:53.085Z,450
2017-03-14T09:18:33.973Z,460
2017-03-14T09:19:14.882Z,465
2017-03-14T09:19:55.765Z,470
2017-03-14T09:20:36.648Z,465
2017-03-14T09:21:17.525Z,450
2017-03-14T09:21:58.396Z,435
2017-03-14T09:22:39.276Z,420
2017-03-14T09:23:20.162Z,395
2017-03-14T09:24:01.044Z,370
2017-03-14T09:24:41.918Z,355
2017-03-14T09:25:22.799Z,355
2017-03-14T09:26:03.731Z,360
2017-03-14T09:26:44.609Z,360
2017-03-14T09:27:25.498Z,365
2017-03-14T09:28:06.373Z,365
2017-03-14T09:28:47.256Z,370
2017-03-14T09:29:28.134Z,370
2017-03-14T09:30:09.014Z,370
2017-03-14T09:30:49.897Z,370
2017-03-14T09:31:30.779Z,365
2017-03-14T09:32:11.658Z,360
2017-03-14T09:32:52.536Z,355
2017-03-14T09:33:33.418Z,340
2017-03-14T09:34:14.304Z,325
2017-03-14T09:34:55.181Z,310
2017-03-14T09:35:36.061Z,295
2017-03-14T09:36:16.942Z,290
2017-03-14T09:36:57.825Z,290
2017-03-14T09:37:38.716Z,280
2017-03-14T09:38:19.600Z,275
2017-03-14T09:39:00.482Z,275
2017-03-14T09:39:41.390Z,270
2017-03-14T09:40:22.282Z,270
2017-03-14T09:41:03.157Z,260
2017-03-14T09:41:44.043Z,265
2017-03-14T09:42:24.917Z,260
2017-03-14T09:43:05.805Z,265
2017-03-14T09:43:46.685Z,270
2017-03-14T09:44:27.572Z,275
2017-03-14T09:45:08.453Z,280
2017-03-14T09:45:49.338Z,280
2017-03-14T09:46:30.218Z,290
2017-03-14T09:47:11.095Z,295
2017-03-14T09:47:51.982Z,300
2017-03-14T09:48:32.864Z,300
2017-03-14T09:49:13.746Z,305
2017-03-14T09:49:54.630Z,305
2017-03-14T09:50:35.512Z,305
2017-03-14T09:51:16.399Z,300
2017-03-14T09:51:57.279Z,300
2017-03-14T09:52:38.183Z,300
2017-03-14T09:53:19.068Z,310
2017-03-14T09:53:59.947Z,310
2017-03-14T09:54:40.845Z,315